sensor_id;sensor_type;location;lat;lon;timestamp;temperature;humidity
24382;DHT22;12502;50.678;7.172;2023-04-16T00:03:35;8.10;99.90
24382;DHT22;12502;50.678;7.172;2023-04-16T00:08:37;8.00;99.90
24382;DHT22;12502;50.678;7.172;2023-04-16T00:13:40;8.00;99.90
24382;DHT22;12502;50.678;7.172;2023-04-16T00:18:43;8.00;99.90
24382;DHT22;12502;50.678;7.172;2023-04-16T00:35:07;8.00;99.90
24382;DHT22;12502;50.678;7.172;2023-04-16T00:40:09;8.00;99.90
24382;DHT22;12502;50.678;7.172;2023-04-16T00:45:13;8.00;99.90
24382;DHT22;12502;50.678;7.172;2023-04-16T00:50:15;7.90;99.90
24382;DHT22;12502;50.678;7.172;2023-04-16T01:00:28;8.00;99.90
24382;DHT22;12502;50.678;7.172;2023-04-16T01:05:30;8.00;99.90
24382;DHT22;12502;50.678;7.172;2023-04-16T01:10:32;8.00;99.90
24382;DHT22;12502;50.678;7.172;2023-04-16T01:15:35;8.00;99.90
24382;DHT22;12502;50.678;7.172;2023-04-16T01:20:37;8.00;99.90
24382;DHT22;12502;50.678;7.172;2023-04-16T01:25:39;8.00;99.90
24382;DHT22;12502;50.678;7.172;2023-04-16T01:30:43;8.10;99.90
24382;DHT22;12502;50.678;7.172;2023-04-16T01:35:44;8.00;99.90
24382;DHT22;12502;50.678;7.172;2023-04-16T01:40:46;8.00;99.90
24382;DHT22;12502;50.678;7.172;2023-04-16T01:45:49;8.00;99.90
24382;DHT22;12502;50.678;7.172;2023-04-16T01:56:21;8.00;99.90
24382;DHT22;12502;50.678;7.172;2023-04-16T02:01:22;8.00;99.90
24382;DHT22;12502;50.678;7.172;2023-04-16T02:06:25;8.00;99.90
24382;DHT22;12502;50.678;7.172;2023-04-16T02:11:27;8.00;99.90
24382;DHT22;12502;50.678;7.172;2023-04-16T02:16:29;8.00;99.90
24382;DHT22;12502;50.678;7.172;2023-04-16T02:21:31;7.90;99.90
24382;DHT22;12502;50.678;7.172;2023-04-16T02:26:33;7.90;99.90
24382;DHT22;12502;50.678;7.172;2023-04-16T02:31:35;8.00;99.90
24382;DHT22;12502;50.678;7.172;2023-04-16T02:36:36;7.80;99.90
24382;DHT22;12502;50.678;7.172;2023-04-16T02:41:38;8.00;99.90
24382;DHT22;12502;50.678;7.172;2023-04-16T02:46:39;8.00;99.90
24382;DHT22;12502;50.678;7.172;2023-04-16T02:51:42;8.00;99.90
24382;DHT22;12502;50.678;7.172;2023-04-16T02:56:45;8.00;99.90
24382;DHT22;12502;50.678;7.172;2023-04-16T03:01:47;8.00;99.90
24382;DHT22;12502;50.678;7.172;2023-04-16T03:06:48;7.90;99.90
24382;DHT22;12502;50.678;7.172;2023-04-16T03:11:51;7.90;99.90
24382;DHT22;12502;50.678;7.172;2023-04-16T03:16:54;8.00;99.90
24382;DHT22;12502;50.678;7.172;2023-04-16T03:21:56;8.00;99.90
24382;DHT22;12502;50.678;7.172;2023-04-16T03:26:58;7.90;99.90
24382;DHT22;12502;50.678;7.172;2023-04-16T03:32:00;8.00;99.90
24382;DHT22;12502;50.678;7.172;2023-04-16T03:37:02;8.00;99.90
24382;DHT22;12502;50.678;7.172;2023-04-16T03:42:06;8.00;99.90
24382;DHT22;12502;50.678;7.172;2023-04-16T03:47:08;7.90;99.90
24382;DHT22;12502;50.678;7.172;2023-04-16T03:52:10;7.90;99.90
24382;DHT22;12502;50.678;7.172;2023-04-16T03:57:11;7.90;99.90
24382;DHT22;12502;50.678;7.172;2023-04-16T04:02:13;8.00;99.90
24382;DHT22;12502;50.678;7.172;2023-04-16T04:07:19;8.00;99.90
24382;DHT22;12502;50.678;7.172;2023-04-16T04:12:21;8.00;99.90
24382;DHT22;12502;50.678;7.172;2023-04-16T04:17:27;8.10;99.90
24382;DHT22;12502;50.678;7.172;2023-04-16T04:22:30;8.00;99.90
24382;DHT22;12502;50.678;7.172;2023-04-16T04:27:32;8.00;99.90
24382;DHT22;12502;50.678;7.172;2023-04-16T04:32:35;8.00;99.90
24382;DHT22;12502;50.678;7.172;2023-04-16T04:37:38;8.00;99.90
24382;DHT22;12502;50.678;7.172;2023-04-16T04:42:40;8.00;99.90
24382;DHT22;12502;50.678;7.172;2023-04-16T04:47:42;8.00;99.90
24382;DHT22;12502;50.678;7.172;2023-04-16T04:52:44;8.00;99.90
24382;DHT22;12502;50.678;7.172;2023-04-16T04:57:47;8.00;99.90
24382;DHT22;12502;50.678;7.172;2023-04-16T05:02:49;8.00;99.90
24382;DHT22;12502;50.678;7.172;2023-04-16T05:07:52;7.90;99.90
24382;DHT22;12502;50.678;7.172;2023-04-16T05:12:55;8.00;99.90
24382;DHT22;12502;50.678;7.172;2023-04-16T05:17:58;8.00;99.90
24382;DHT22;12502;50.678;7.172;2023-04-16T05:23:00;8.10;99.90
24382;DHT22;12502;50.678;7.172;2023-04-16T05:28:03;8.10;99.90
24382;DHT22;12502;50.678;7.172;2023-04-16T05:33:05;8.10;99.90
24382;DHT22;12502;50.678;7.172;2023-04-16T05:38:06;8.10;99.90
24382;DHT22;12502;50.678;7.172;2023-04-16T05:43:08;8.00;99.90
24382;DHT22;12502;50.678;7.172;2023-04-16T05:48:10;8.10;99.90
24382;DHT22;12502;50.678;7.172;2023-04-16T05:53:13;8.00;99.90
24382;DHT22;12502;50.678;7.172;2023-04-16T05:58:16;8.20;99.90
24382;DHT22;12502;50.678;7.172;2023-04-16T06:03:17;8.10;99.90
24382;DHT22;12502;50.678;7.172;2023-04-16T06:08:20;8.10;99.90
24382;DHT22;12502;50.678;7.172;2023-04-16T06:13:21;8.10;99.90
24382;DHT22;12502;50.678;7.172;2023-04-16T06:18:23;8.10;99.90
24382;DHT22;12502;50.678;7.172;2023-04-16T06:23:25;8.10;99.90
24382;DHT22;12502;50.678;7.172;2023-04-16T06:28:28;8.20;99.90
24382;DHT22;12502;50.678;7.172;2023-04-16T06:33:31;8.20;99.90
24382;DHT22;12502;50.678;7.172;2023-04-16T06:38:34;8.20;99.90
24382;DHT22;12502;50.678;7.172;2023-04-16T06:43:36;8.30;99.90
24382;DHT22;12502;50.678;7.172;2023-04-16T06:48:38;8.20;99.90
24382;DHT22;12502;50.678;7.172;2023-04-16T06:53:40;8.20;99.90
24382;DHT22;12502;50.678;7.172;2023-04-16T06:58:42;8.30;99.90
24382;DHT22;12502;50.678;7.172;2023-04-16T07:03:44;8.30;99.90
24382;DHT22;12502;50.678;7.172;2023-04-16T07:08:47;8.20;99.90
24382;DHT22;12502;50.678;7.172;2023-04-16T07:13:48;8.30;99.90
24382;DHT22;12502;50.678;7.172;2023-04-16T07:18:51;8.40;99.90
24382;DHT22;12502;50.678;7.172;2023-04-16T07:23:53;8.30;99.90
24382;DHT22;12502;50.678;7.172;2023-04-16T07:28:54;8.40;99.90
24382;DHT22;12502;50.678;7.172;2023-04-16T07:34:02;8.40;99.90
24382;DHT22;12502;50.678;7.172;2023-04-16T07:39:04;8.40;99.90
24382;DHT22;12502;50.678;7.172;2023-04-16T07:44:06;8.40;99.90
24382;DHT22;12502;50.678;7.172;2023-04-16T07:49:08;8.50;99.90
24382;DHT22;12502;50.678;7.172;2023-04-16T07:54:13;8.40;99.90
24382;DHT22;12502;50.678;7.172;2023-04-16T07:59:15;8.50;99.90
24382;DHT22;12502;50.678;7.172;2023-04-16T08:04:24;8.50;99.90
24382;DHT22;12502;50.678;7.172;2023-04-16T08:09:27;8.60;99.90
24382;DHT22;12502;50.678;7.172;2023-04-16T08:14:29;8.70;99.90
24382;DHT22;12502;50.678;7.172;2023-04-16T08:19:31;8.80;99.90
24382;DHT22;12502;50.678;7.172;2023-04-16T08:24:33;8.90;99.90
24382;DHT22;12502;50.678;7.172;2023-04-16T08:29:34;8.90;99.90
24382;DHT22;12502;50.678;7.172;2023-04-16T08:34:45;8.80;99.90
24382;DHT22;12502;50.678;7.172;2023-04-16T08:39:57;8.90;99.90
24382;DHT22;12502;50.678;7.172;2023-04-16T08:45:06;8.90;99.90
24382;DHT22;12502;50.678;7.172;2023-04-16T08:50:08;8.80;99.90
24382;DHT22;12502;50.678;7.172;2023-04-16T08:55:12;8.70;99.90
24382;DHT22;12502;50.678;7.172;2023-04-16T09:00:17;9.00;99.90
24382;DHT22;12502;50.678;7.172;2023-04-16T09:05:19;8.80;99.90
24382;DHT22;12502;50.678;7.172;2023-04-16T09:16:06;9.00;99.90
24382;DHT22;12502;50.678;7.172;2023-04-16T09:21:13;9.30;99.90
24382;DHT22;12502;50.678;7.172;2023-04-16T09:26:21;9.30;99.90
24382;DHT22;12502;50.678;7.172;2023-04-16T09:31:40;9.30;99.90
24382;DHT22;12502;50.678;7.172;2023-04-16T09:37:15;9.30;99.90
24382;DHT22;12502;50.678;7.172;2023-04-16T09:42:25;9.40;99.90
24382;DHT22;12502;50.678;7.172;2023-04-16T09:47:43;9.40;99.90
24382;DHT22;12502;50.678;7.172;2023-04-16T09:52:48;9.50;99.90
24382;DHT22;12502;50.678;7.172;2023-04-16T09:57:58;9.60;99.90
24382;DHT22;12502;50.678;7.172;2023-04-16T10:03:04;9.80;99.90
24382;DHT22;12502;50.678;7.172;2023-04-16T10:08:15;10.00;99.90
24382;DHT22;12502;50.678;7.172;2023-04-16T10:13:17;10.20;99.90
24382;DHT22;12502;50.678;7.172;2023-04-16T10:18:19;10.20;99.90
24382;DHT22;12502;50.678;7.172;2023-04-16T10:23:21;10.20;99.90
24382;DHT22;12502;50.678;7.172;2023-04-16T10:28:23;10.30;99.90
24382;DHT22;12502;50.678;7.172;2023-04-16T10:33:26;10.30;99.90
24382;DHT22;12502;50.678;7.172;2023-04-16T10:38:31;10.40;99.90
24382;DHT22;12502;50.678;7.172;2023-04-16T10:43:47;10.40;99.90
24382;DHT22;12502;50.678;7.172;2023-04-16T10:48:51;10.40;99.90
24382;DHT22;12502;50.678;7.172;2023-04-16T10:54:41;10.50;99.90
24382;DHT22;12502;50.678;7.172;2023-04-16T10:59:20;10.30;99.90
24382;DHT22;12502;50.678;7.172;2023-04-16T11:14:48;10.40;99.90
24382;DHT22;12502;50.678;7.172;2023-04-16T11:19:50;10.50;99.90
24382;DHT22;12502;50.678;7.172;2023-04-16T11:24:54;10.60;99.90
24382;DHT22;12502;50.678;7.172;2023-04-16T11:30:00;10.60;99.90
24382;DHT22;12502;50.678;7.172;2023-04-16T11:35:03;10.70;99.90
24382;DHT22;12502;50.678;7.172;2023-04-16T11:40:07;10.70;99.90
24382;DHT22;12502;50.678;7.172;2023-04-16T11:45:11;10.70;99.90
24382;DHT22;12502;50.678;7.172;2023-04-16T11:50:26;10.70;99.90
24382;DHT22;12502;50.678;7.172;2023-04-16T11:55:28;10.70;99.90
24382;DHT22;12502;50.678;7.172;2023-04-16T12:00:33;10.80;99.90
24382;DHT22;12502;50.678;7.172;2023-04-16T12:05:36;10.70;99.90
24382;DHT22;12502;50.678;7.172;2023-04-16T12:10:52;10.80;99.90
24382;DHT22;12502;50.678;7.172;2023-04-16T12:15:54;10.80;99.90
24382;DHT22;12502;50.678;7.172;2023-04-16T12:20:57;10.90;99.90
24382;DHT22;12502;50.678;7.172;2023-04-16T12:26:05;11.00;99.90
24382;DHT22;12502;50.678;7.172;2023-04-16T12:31:13;11.00;99.90
24382;DHT22;12502;50.678;7.172;2023-04-16T12:36:15;11.00;99.90
24382;DHT22;12502;50.678;7.172;2023-04-16T12:41:17;11.10;99.90
24382;DHT22;12502;50.678;7.172;2023-04-16T12:46:20;11.20;99.90
24382;DHT22;12502;50.678;7.172;2023-04-16T12:51:22;11.20;99.90
24382;DHT22;12502;50.678;7.172;2023-04-16T12:56:24;11.20;99.90
24382;DHT22;12502;50.678;7.172;2023-04-16T13:01:26;11.30;99.90
24382;DHT22;12502;50.678;7.172;2023-04-16T13:06:29;11.50;99.90
24382;DHT22;12502;50.678;7.172;2023-04-16T13:11:31;11.40;99.90
24382;DHT22;12502;50.678;7.172;2023-04-16T13:16:34;11.60;99.90
24382;DHT22;12502;50.678;7.172;2023-04-16T13:21:36;12.00;99.90
24382;DHT22;12502;50.678;7.172;2023-04-16T13:26:38;12.40;99.90
24382;DHT22;12502;50.678;7.172;2023-04-16T13:31:40;12.60;99.90
24382;DHT22;12502;50.678;7.172;2023-04-16T13:36:41;12.60;99.90
24382;DHT22;12502;50.678;7.172;2023-04-16T13:41:45;12.80;99.90
24382;DHT22;12502;50.678;7.172;2023-04-16T13:46:49;12.50;99.90
24382;DHT22;12502;50.678;7.172;2023-04-16T13:51:51;12.50;99.90
24382;DHT22;12502;50.678;7.172;2023-04-16T13:56:52;12.80;99.90
24382;DHT22;12502;50.678;7.172;2023-04-16T14:01:54;12.70;99.90
24382;DHT22;12502;50.678;7.172;2023-04-16T14:06:56;12.60;99.90
24382;DHT22;12502;50.678;7.172;2023-04-16T14:11:57;12.60;99.90
24382;DHT22;12502;50.678;7.172;2023-04-16T14:17:00;12.60;99.90
24382;DHT22;12502;50.678;7.172;2023-04-16T14:22:03;12.40;99.90
24382;DHT22;12502;50.678;7.172;2023-04-16T14:27:06;12.50;99.90
24382;DHT22;12502;50.678;7.172;2023-04-16T14:32:08;12.50;99.90
24382;DHT22;12502;50.678;7.172;2023-04-16T14:37:10;12.60;99.90
24382;DHT22;12502;50.678;7.172;2023-04-16T14:42:12;12.70;99.90
24382;DHT22;12502;50.678;7.172;2023-04-16T14:47:14;12.70;99.90
24382;DHT22;12502;50.678;7.172;2023-04-16T14:52:16;12.60;99.90
24382;DHT22;12502;50.678;7.172;2023-04-16T14:57:17;12.70;99.90
24382;DHT22;12502;50.678;7.172;2023-04-16T15:02:19;12.80;99.90
24382;DHT22;12502;50.678;7.172;2023-04-16T15:07:22;12.60;99.90
24382;DHT22;12502;50.678;7.172;2023-04-16T15:12:25;12.70;99.90
24382;DHT22;12502;50.678;7.172;2023-04-16T15:17:27;12.60;99.90
24382;DHT22;12502;50.678;7.172;2023-04-16T15:22:29;12.70;99.90
24382;DHT22;12502;50.678;7.172;2023-04-16T15:27:31;12.70;99.90
24382;DHT22;12502;50.678;7.172;2023-04-16T15:32:32;12.70;99.90
24382;DHT22;12502;50.678;7.172;2023-04-16T15:37:34;12.70;99.90
24382;DHT22;12502;50.678;7.172;2023-04-16T15:42:36;12.60;99.90
24382;DHT22;12502;50.678;7.172;2023-04-16T15:47:39;12.70;99.90
24382;DHT22;12502;50.678;7.172;2023-04-16T15:52:45;12.70;99.90
24382;DHT22;12502;50.678;7.172;2023-04-16T15:57:53;12.70;99.90
24382;DHT22;12502;50.678;7.172;2023-04-16T16:03:16;12.80;99.90
24382;DHT22;12502;50.678;7.172;2023-04-16T16:08:19;12.70;99.90
24382;DHT22;12502;50.678;7.172;2023-04-16T16:13:22;12.60;99.90
24382;DHT22;12502;50.678;7.172;2023-04-16T16:18:41;12.60;99.90
24382;DHT22;12502;50.678;7.172;2023-04-16T16:23:46;12.70;99.90
24382;DHT22;12502;50.678;7.172;2023-04-16T16:28:48;12.80;99.90
24382;DHT22;12502;50.678;7.172;2023-04-16T16:33:51;12.80;99.90
24382;DHT22;12502;50.678;7.172;2023-04-16T16:38:53;12.80;99.90
24382;DHT22;12502;50.678;7.172;2023-04-16T16:43:56;12.80;99.90
24382;DHT22;12502;50.678;7.172;2023-04-16T16:49:00;12.70;99.90
24382;DHT22;12502;50.678;7.172;2023-04-16T16:54:02;12.60;99.90
24382;DHT22;12502;50.678;7.172;2023-04-16T16:59:03;12.60;99.90
24382;DHT22;12502;50.678;7.172;2023-04-16T17:04:06;12.60;99.90
24382;DHT22;12502;50.678;7.172;2023-04-16T17:09:09;12.50;99.90
24382;DHT22;12502;50.678;7.172;2023-04-16T17:14:15;12.50;99.90
24382;DHT22;12502;50.678;7.172;2023-04-16T17:19:17;12.40;99.90
24382;DHT22;12502;50.678;7.172;2023-04-16T17:24:20;12.40;99.90
24382;DHT22;12502;50.678;7.172;2023-04-16T17:29:22;12.30;99.90
24382;DHT22;12502;50.678;7.172;2023-04-16T17:34:26;12.30;99.90
24382;DHT22;12502;50.678;7.172;2023-04-16T17:39:28;12.10;99.90
24382;DHT22;12502;50.678;7.172;2023-04-16T17:44:30;11.80;99.90
24382;DHT22;12502;50.678;7.172;2023-04-16T17:55:34;11.60;99.90
24382;DHT22;12502;50.678;7.172;2023-04-16T18:05:53;11.40;99.90
24382;DHT22;12502;50.678;7.172;2023-04-16T18:10:55;11.30;99.90
24382;DHT22;12502;50.678;7.172;2023-04-16T18:15:58;11.30;99.90
24382;DHT22;12502;50.678;7.172;2023-04-16T18:21:00;11.30;99.90
24382;DHT22;12502;50.678;7.172;2023-04-16T18:26:02;11.30;99.90
24382;DHT22;12502;50.678;7.172;2023-04-16T18:31:06;11.10;99.90
24382;DHT22;12502;50.678;7.172;2023-04-16T18:36:08;11.20;99.90
24382;DHT22;12502;50.678;7.172;2023-04-16T18:41:15;11.10;99.90
24382;DHT22;12502;50.678;7.172;2023-04-16T18:46:18;11.00;99.90
24382;DHT22;12502;50.678;7.172;2023-04-16T18:51:21;10.90;99.90
24382;DHT22;12502;50.678;7.172;2023-04-16T18:56:27;10.90;99.90
24382;DHT22;12502;50.678;7.172;2023-04-16T19:01:36;10.90;99.90
24382;DHT22;12502;50.678;7.172;2023-04-16T19:06:40;10.90;99.90
24382;DHT22;12502;50.678;7.172;2023-04-16T19:11:44;10.80;99.90
24382;DHT22;12502;50.678;7.172;2023-04-16T19:16:47;10.80;99.90
24382;DHT22;12502;50.678;7.172;2023-04-16T19:21:50;10.80;99.90
24382;DHT22;12502;50.678;7.172;2023-04-16T19:26:52;10.80;99.90
24382;DHT22;12502;50.678;7.172;2023-04-16T19:32:01;10.90;99.90
24382;DHT22;12502;50.678;7.172;2023-04-16T19:37:04;10.90;99.90
24382;DHT22;12502;50.678;7.172;2023-04-16T19:42:07;10.90;99.90
24382;DHT22;12502;50.678;7.172;2023-04-16T19:47:08;10.80;99.90
24382;DHT22;12502;50.678;7.172;2023-04-16T19:52:15;10.90;99.90
24382;DHT22;12502;50.678;7.172;2023-04-16T19:57:18;10.80;99.90
24382;DHT22;12502;50.678;7.172;2023-04-16T20:07:26;10.80;99.90
24382;DHT22;12502;50.678;7.172;2023-04-16T20:17:39;10.90;99.90
24382;DHT22;12502;50.678;7.172;2023-04-16T22:11:41;10.60;99.90
24382;DHT22;12502;50.678;7.172;2023-04-16T22:16:45;10.40;99.90
24382;DHT22;12502;50.678;7.172;2023-04-16T22:21:50;10.30;99.90
24382;DHT22;12502;50.678;7.172;2023-04-16T22:26:55;10.20;99.90
24382;DHT22;12502;50.678;7.172;2023-04-16T22:37:12;10.20;99.90
24382;DHT22;12502;50.678;7.172;2023-04-16T22:42:19;10.10;99.90
24382;DHT22;12502;50.678;7.172;2023-04-16T22:47:22;10.00;99.90
24382;DHT22;12502;50.678;7.172;2023-04-16T22:52:25;10.00;99.90
24382;DHT22;12502;50.678;7.172;2023-04-16T22:57:28;9.90;99.90
24382;DHT22;12502;50.678;7.172;2023-04-16T23:02:32;9.90;99.90
24382;DHT22;12502;50.678;7.172;2023-04-16T23:07:34;9.90;99.90
24382;DHT22;12502;50.678;7.172;2023-04-16T23:12:36;9.90;99.90
24382;DHT22;12502;50.678;7.172;2023-04-16T23:17:39;9.90;99.90
24382;DHT22;12502;50.678;7.172;2023-04-16T23:22:45;9.90;99.90
24382;DHT22;12502;50.678;7.172;2023-04-16T23:27:48;9.90;99.90
24382;DHT22;12502;50.678;7.172;2023-04-16T23:32:50;9.90;99.90
24382;DHT22;12502;50.678;7.172;2023-04-16T23:37:53;9.80;99.90
24382;DHT22;12502;50.678;7.172;2023-04-16T23:42:55;9.70;99.90
24382;DHT22;12502;50.678;7.172;2023-04-16T23:47:58;9.70;99.90
24382;DHT22;12502;50.678;7.172;2023-04-16T23:53:00;9.70;99.90
24382;DHT22;12502;50.678;7.172;2023-04-16T23:58:04;9.70;99.90
